createdAt,value
2018-10-02T00:03:19.683Z,4.37
2018-10-02T00:08:22.900Z,4.93
2018-10-02T00:13:31.536Z,6.03
2018-10-02T00:18:34.766Z,4.33
2018-10-02T00:23:37.998Z,4.43
2018-10-02T00:28:41.243Z,9.60
2018-10-02T00:33:44.480Z,6.23
2018-10-02T00:38:47.709Z,4.37
2018-10-02T00:43:51.328Z,8.90
2018-10-02T00:48:54.612Z,12.07
2018-10-02T00:53:57.852Z,8.67
2018-10-02T00:59:01.079Z,8.33
2018-10-02T01:04:04.307Z,7.47
2018-10-02T01:09:09.607Z,9.03
2018-10-02T01:14:13.160Z,14.17
2018-10-02T01:19:16.368Z,6.50
2018-10-02T01:24:19.596Z,8.43
2018-10-02T01:29:22.847Z,8.63
2018-10-02T01:34:26.167Z,7.67
2018-10-02T01:39:29.397Z,7.13
2018-10-02T01:44:32.624Z,6.13
2018-10-02T01:49:35.878Z,9.10
2018-10-02T01:54:39.683Z,12.43
2018-10-02T01:59:42.980Z,8.10
2018-10-02T02:04:46.247Z,8.50
2018-10-02T02:09:49.567Z,10.90
2018-10-02T02:14:52.840Z,9.20
2018-10-02T02:19:56.114Z,11.30
2018-10-02T02:24:59.456Z,10.77
2018-10-02T02:30:02.726Z,10.83
2018-10-02T02:35:06.003Z,8.70
2018-10-02T02:40:09.280Z,9.30
2018-10-02T02:45:12.520Z,9.00
2018-10-02T02:50:21.084Z,15.43
2018-10-02T02:55:24.352Z,10.20
2018-10-02T03:00:27.639Z,11.00
2018-10-02T03:05:30.836Z,13.70
2018-10-02T03:10:34.020Z,5.93
2018-10-02T03:15:37.252Z,10.83
2018-10-02T03:20:40.412Z,6.20
2018-10-02T03:25:43.604Z,13.13
2018-10-02T03:30:46.800Z,11.83
2018-10-02T03:35:49.984Z,8.80
2018-10-02T03:40:53.184Z,7.60
2018-10-02T03:45:56.559Z,6.07
2018-10-02T03:50:59.881Z,6.03
2018-10-02T03:56:03.152Z,6.07
2018-10-02T04:01:06.404Z,8.43
2018-10-02T04:06:09.676Z,7.87
2018-10-02T04:11:12.990Z,7.30
2018-10-02T04:16:16.279Z,10.90
2018-10-02T04:21:24.061Z,10.17
2018-10-02T04:26:27.384Z,6.57
2018-10-02T04:31:31.184Z,10.53
2018-10-02T04:36:34.467Z,4.53
2018-10-02T04:41:37.991Z,4.13
2018-10-02T04:46:41.233Z,5.50
2018-10-02T04:51:44.388Z,6.17
2018-10-02T04:56:47.608Z,4.40
2018-10-02T05:01:50.828Z,13.50
2018-10-02T05:06:54.020Z,6.70
2018-10-02T05:11:57.228Z,5.70
2018-10-02T05:17:00.435Z,5.57
2018-10-02T05:22:03.636Z,3.20
2018-10-02T05:27:06.890Z,5.63
2018-10-02T05:32:10.019Z,4.93
2018-10-02T05:37:13.246Z,7.23
2018-10-02T05:42:16.555Z,7.60
2018-10-02T05:47:19.869Z,14.00
2018-10-02T05:52:23.145Z,8.60
2018-10-02T05:57:26.400Z,11.80
2018-10-02T06:02:31.544Z,9.70
2018-10-02T06:07:34.784Z,9.57
2018-10-02T06:12:38.047Z,8.27
2018-10-02T06:17:41.331Z,6.40
2018-10-02T06:22:44.595Z,7.70
2018-10-02T06:27:47.848Z,8.50
2018-10-02T06:32:51.159Z,14.37
2018-10-02T06:37:54.429Z,8.20
2018-10-02T06:42:57.607Z,3.80
2018-10-02T06:48:00.799Z,10.73
2018-10-02T06:53:04.383Z,7.70
2018-10-02T06:58:07.547Z,9.23
2018-10-02T07:03:10.752Z,8.60
2018-10-02T07:08:13.929Z,8.20
2018-10-02T07:13:17.113Z,8.97
2018-10-02T07:18:20.340Z,7.50
2018-10-02T07:23:23.524Z,8.67
2018-10-02T07:28:26.764Z,10.50
2018-10-02T07:33:29.954Z,6.93
2018-10-02T07:38:33.236Z,7.33
2018-10-02T07:43:36.577Z,11.23
2018-10-02T07:48:39.820Z,12.83
2018-10-02T07:53:43.149Z,9.37
2018-10-02T07:58:46.357Z,7.40
2018-10-02T08:03:49.629Z,9.60
2018-10-02T08:08:52.934Z,9.40
2018-10-02T08:13:56.134Z,7.20
2018-10-02T08:18:59.404Z,7.63
2018-10-02T08:24:02.743Z,5.27
2018-10-02T08:29:05.998Z,5.20
2018-10-02T08:34:09.272Z,8.20
2018-10-02T08:39:12.516Z,9.10
2018-10-02T08:44:15.744Z,9.90
2018-10-02T08:49:18.912Z,6.23
2018-10-02T08:54:22.087Z,8.30
2018-10-02T08:59:25.312Z,6.70
2018-10-02T09:04:28.564Z,5.07
2018-10-02T09:09:31.772Z,6.70
2018-10-02T09:14:34.979Z,7.40
2018-10-02T09:19:38.168Z,5.57
2018-10-02T09:24:41.469Z,3.90
2018-10-02T09:29:50.092Z,4.70
2018-10-02T09:34:58.555Z,9.57
2018-10-02T09:40:07.178Z,4.10
2018-10-02T09:45:10.440Z,4.03
2018-10-02T09:50:14.080Z,3.30
2018-10-02T09:55:17.339Z,3.43
2018-10-02T10:00:21.370Z,5.70
2018-10-02T10:05:24.780Z,1.90
2018-10-02T10:10:28.466Z,1.60
2018-10-02T10:15:31.702Z,3.33
2018-10-02T10:20:34.999Z,5.50
2018-10-02T10:25:38.225Z,3.80
2018-10-02T10:30:41.501Z,2.17
2018-10-02T10:35:44.764Z,3.27
2018-10-02T10:40:48.063Z,5.27
2018-10-02T10:45:51.279Z,5.70
2018-10-02T10:50:54.528Z,2.27
2018-10-02T10:55:57.812Z,1.33
2018-10-02T11:01:01.097Z,1.10
2018-10-02T11:06:04.344Z,1.83
2018-10-02T11:11:07.631Z,3.43
2018-10-02T11:16:10.883Z,1.87
2018-10-02T11:21:14.169Z,1.13
2018-10-02T11:26:17.440Z,1.10
2018-10-02T11:31:20.808Z,1.70
2018-10-02T11:36:24.032Z,2.43
2018-10-02T11:41:28.128Z,0.70
2018-10-02T11:46:31.390Z,0.87
2018-10-02T11:51:34.539Z,1.47
2018-10-02T11:56:37.724Z,4.80
2018-10-02T12:01:40.909Z,2.90
2018-10-02T12:06:44.179Z,2.90
2018-10-02T12:11:47.333Z,1.20
2018-10-02T12:16:50.839Z,1.07
2018-10-02T12:21:54.295Z,1.17
2018-10-02T12:26:57.481Z,2.20
2018-10-02T12:32:00.668Z,0.70
2018-10-02T12:37:03.859Z,0.70
2018-10-02T12:42:07.132Z,11.57
2018-10-02T12:47:10.400Z,1.20
2018-10-02T12:52:13.725Z,8.33
2018-10-02T12:57:16.923Z,1.87
2018-10-02T13:02:20.225Z,2.00
2018-10-02T13:07:23.503Z,1.63
2018-10-02T13:12:26.777Z,0.93
2018-10-02T13:17:30.031Z,6.10
2018-10-02T13:22:33.300Z,4.20
2018-10-02T13:27:36.571Z,1.57
2018-10-02T13:32:39.840Z,1.37
2018-10-02T13:37:43.133Z,0.80
2018-10-02T13:42:46.347Z,0.70
2018-10-02T13:47:49.544Z,0.70
2018-10-02T13:52:52.859Z,1.17
2018-10-02T13:57:56.158Z,0.70
2018-10-02T14:02:59.688Z,0.80
2018-10-02T14:08:02.950Z,2.70
2018-10-02T14:13:06.293Z,1.73
2018-10-02T14:18:09.464Z,1.47
2018-10-02T14:23:12.652Z,1.70
2018-10-02T14:28:15.891Z,1.60
2018-10-02T14:33:19.021Z,2.07
2018-10-02T14:38:22.200Z,1.63
2018-10-02T14:43:25.416Z,2.03
2018-10-02T14:48:29.136Z,2.17
2018-10-02T14:53:32.939Z,2.60
2018-10-02T14:58:36.896Z,2.97
2018-10-02T15:03:40.128Z,3.30
2018-10-02T15:08:43.575Z,9.00
2018-10-02T15:14:49.493Z,3.60
2018-10-02T15:19:52.675Z,4.03
2018-10-02T15:24:55.858Z,7.10
2018-10-02T15:29:59.110Z,3.63
2018-10-02T15:35:02.314Z,6.13
2018-10-02T15:40:05.503Z,5.43
2018-10-02T15:45:08.872Z,6.10
2018-10-02T15:50:12.128Z,6.00
2018-10-02T15:55:15.395Z,10.20
2018-10-02T16:00:18.663Z,6.90
2018-10-02T16:05:22.240Z,7.80
2018-10-02T16:10:25.506Z,11.10
2018-10-02T16:15:28.860Z,11.37
2018-10-02T16:20:32.111Z,11.60
2018-10-02T16:25:35.368Z,13.33
2018-10-02T16:30:38.628Z,11.20
2018-10-02T16:35:41.877Z,13.67
2018-10-02T16:40:45.204Z,18.50
2018-10-02T16:45:48.460Z,10.00
2018-10-02T16:50:51.750Z,12.17
2018-10-02T16:55:55.027Z,10.60
2018-10-02T17:00:58.307Z,9.60
2018-10-02T17:06:01.568Z,12.10
2018-10-02T17:11:04.848Z,10.03
2018-10-02T17:16:08.080Z,12.13
2018-10-02T17:21:11.484Z,13.37
2018-10-02T17:26:14.768Z,10.60
2018-10-02T17:31:18.014Z,12.07
2018-10-02T17:36:21.335Z,14.97
2018-10-02T17:41:24.585Z,11.17
2018-10-02T17:46:27.788Z,8.47
2018-10-02T17:51:31.172Z,9.97
2018-10-02T17:56:34.378Z,13.07
2018-10-02T18:01:37.597Z,21.27
2018-10-02T18:06:40.878Z,18.63
2018-10-02T18:11:44.072Z,10.50
2018-10-02T18:16:47.355Z,8.97
2018-10-02T18:21:50.612Z,13.97
2018-10-02T18:26:53.804Z,10.63
2018-10-02T18:31:56.968Z,11.10
2018-10-02T18:37:00.196Z,12.80
2018-10-02T18:42:03.413Z,12.37
2018-10-02T18:47:06.661Z,14.00
2018-10-02T18:52:09.843Z,12.93
2018-10-02T18:57:13.056Z,9.83
2018-10-02T19:02:16.456Z,11.30
2018-10-02T19:07:21.254Z,10.80
2018-10-02T19:12:24.534Z,10.20
2018-10-02T19:17:27.863Z,10.77
2018-10-02T19:22:31.156Z,14.07
2018-10-02T19:27:34.494Z,7.40
2018-10-02T19:32:37.845Z,14.23
2018-10-02T19:37:46.399Z,9.43
2018-10-02T19:42:49.608Z,12.27
2018-10-02T19:47:52.792Z,12.13
2018-10-02T19:52:56.032Z,5.50
2018-10-02T19:57:59.189Z,5.53
2018-10-02T20:03:02.377Z,9.67
2018-10-02T20:08:05.664Z,12.93
2018-10-02T20:13:08.942Z,10.80
2018-10-02T20:18:12.061Z,11.63
2018-10-02T20:23:15.240Z,11.20
2018-10-02T20:28:18.475Z,6.20
2018-10-02T20:33:21.657Z,12.47
2018-10-02T20:38:24.809Z,7.80
2018-10-02T20:43:28.108Z,8.83
2018-10-02T20:48:31.348Z,10.63
2018-10-02T20:53:34.949Z,12.63
2018-10-02T20:58:38.192Z,5.63
2018-10-02T21:03:41.444Z,6.40
2018-10-02T21:08:44.711Z,7.83
2018-10-02T21:13:47.972Z,7.30
2018-10-02T21:18:51.218Z,10.50
2018-10-02T21:23:54.455Z,9.17
2018-10-02T21:28:57.755Z,4.00
2018-10-02T21:34:01.087Z,9.63
2018-10-02T21:39:06.206Z,9.97
2018-10-02T21:44:09.431Z,10.27
2018-10-02T21:49:12.625Z,7.60
2018-10-02T21:54:15.800Z,13.83
2018-10-02T21:59:18.964Z,9.43
2018-10-02T22:04:22.141Z,7.27
2018-10-02T22:09:25.332Z,11.50
2018-10-02T22:14:28.557Z,10.00
2018-10-02T22:19:31.816Z,15.13
2018-10-02T22:24:34.991Z,12.20
2018-10-02T22:29:38.213Z,13.77
2018-10-02T22:34:41.375Z,12.03
2018-10-02T22:39:44.549Z,7.13
2018-10-02T22:44:47.764Z,12.30
2018-10-02T22:49:50.947Z,11.87
2018-10-02T22:54:54.115Z,14.93
2018-10-02T22:59:57.312Z,7.10
2018-10-02T23:05:00.473Z,6.47
2018-10-02T23:10:03.669Z,9.40
2018-10-02T23:15:06.848Z,11.30
2018-10-02T23:20:10.264Z,8.80
2018-10-02T23:25:13.854Z,10.33
2018-10-02T23:30:17.039Z,6.40
2018-10-02T23:35:20.212Z,8.97
2018-10-02T23:40:23.387Z,8.67
2018-10-02T23:45:26.576Z,14.00
2018-10-02T23:50:29.772Z,5.67
2018-10-02T23:55:33.088Z,8.47
